createdAt,value
2018-07-06T02:24:42.856Z,0.00
2018-07-06T02:25:42.842Z,0.00
2018-07-06T02:27:35.754Z,0.00
2018-07-06T02:28:35.770Z,0.00
2018-07-06T02:30:28.705Z,0.00
2018-07-06T02:31:28.694Z,0.00
2018-07-06T02:33:21.639Z,0.00
2018-07-06T02:34:21.632Z,0.00
2018-07-06T02:36:14.552Z,0.00
2018-07-06T02:37:14.567Z,0.00
2018-07-06T02:39:07.512Z,0.00
2018-07-06T02:40:07.500Z,0.00
2018-07-06T02:42:00.468Z,0.00
2018-07-06T02:43:00.437Z,0.00
2018-07-06T02:44:53.386Z,0.00
2018-07-06T02:45:53.380Z,0.00
2018-07-06T02:47:46.303Z,0.00
2018-07-06T02:48:46.315Z,0.00
2018-07-06T02:50:39.258Z,0.00
2018-07-06T02:51:39.255Z,0.00
2018-07-06T02:53:32.197Z,0.00
2018-07-06T02:54:32.199Z,0.00
2018-07-06T02:56:25.126Z,0.00
2018-07-06T02:57:25.140Z,0.00
2018-07-06T02:59:18.088Z,0.00
2018-07-06T03:00:18.079Z,0.00
2018-07-06T03:02:11.005Z,0.00
2018-07-06T03:03:11.016Z,0.00
2018-07-06T03:05:03.964Z,0.00
2018-07-06T03:06:03.962Z,0.00
2018-07-06T03:07:56.885Z,0.00
2018-07-06T03:08:56.903Z,0.00
2018-07-06T03:10:49.856Z,0.00
2018-07-06T03:11:49.845Z,0.00
2018-07-06T03:13:42.805Z,0.00
2018-07-06T03:14:42.789Z,0.00
2018-07-06T03:16:35.713Z,0.00
2018-07-06T03:17:35.726Z,0.00
2018-07-06T03:19:28.681Z,0.00
2018-07-06T03:20:28.669Z,0.00
2018-07-06T03:22:21.596Z,0.00
2018-07-06T03:23:21.613Z,0.00
2018-07-06T03:25:14.558Z,0.00
2018-07-06T03:26:14.613Z,0.00
2018-07-06T03:28:07.546Z,0.00
2018-07-06T03:29:07.490Z,5.63
2018-07-06T03:31:00.438Z,5.63
2018-07-06T03:32:00.434Z,5.63
2018-07-06T03:33:53.361Z,5.63
2018-07-06T03:34:53.374Z,5.63
2018-07-06T03:36:46.328Z,5.63
2018-07-06T03:37:46.323Z,5.63
2018-07-06T03:39:39.271Z,5.63
2018-07-06T03:40:39.262Z,5.63
2018-07-06T03:42:32.188Z,11.25
2018-07-06T03:43:32.209Z,11.25
2018-07-06T03:45:25.160Z,11.25
2018-07-06T03:46:25.146Z,11.25
2018-07-06T03:48:18.075Z,16.88
2018-07-06T03:49:18.090Z,16.88
2018-07-06T03:51:11.036Z,16.88
2018-07-06T03:52:11.031Z,22.50
2018-07-06T03:54:03.959Z,22.50
2018-07-06T03:55:03.978Z,22.50
2018-07-06T03:56:56.921Z,28.13
2018-07-06T03:57:56.921Z,33.75
2018-07-06T03:59:50.360Z,33.75
2018-07-06T04:00:50.355Z,33.75
2018-07-06T04:02:43.281Z,39.38
2018-07-06T04:03:43.298Z,39.38
2018-07-06T04:05:36.244Z,39.38
2018-07-06T04:06:36.233Z,39.38
2018-07-06T04:08:29.161Z,45.00
2018-07-06T04:09:29.187Z,45.00
2018-07-06T04:11:22.128Z,45.00
2018-07-06T04:12:22.119Z,39.38
2018-07-06T04:14:15.051Z,16.88
2018-07-06T04:15:15.061Z,16.88
2018-07-06T04:17:08.013Z,16.88
2018-07-06T04:18:08.003Z,16.88
2018-07-06T04:20:00.954Z,16.88
2018-07-06T04:21:00.947Z,11.25
2018-07-06T04:22:53.875Z,11.25
2018-07-06T04:23:53.891Z,11.25
2018-07-06T04:25:46.838Z,11.25
2018-07-06T04:26:46.830Z,11.25
2018-07-06T04:28:39.757Z,11.25
2018-07-06T04:29:39.768Z,11.25
2018-07-06T04:31:32.726Z,11.25
2018-07-06T04:32:32.718Z,11.25
2018-07-06T04:34:25.649Z,11.25
2018-07-06T04:35:25.666Z,11.25
2018-07-06T04:37:18.613Z,11.25
2018-07-06T04:38:18.608Z,16.88
2018-07-06T04:40:11.553Z,16.88
2018-07-06T04:41:11.552Z,16.88
2018-07-06T04:43:04.481Z,16.88
2018-07-06T04:44:04.494Z,16.88
2018-07-06T04:45:57.440Z,11.25
2018-07-06T04:46:57.437Z,11.25
2018-07-06T04:48:50.362Z,11.25
2018-07-06T04:49:50.384Z,16.88
2018-07-06T04:51:43.326Z,16.88
2018-07-06T04:52:43.322Z,16.88
2018-07-06T04:54:36.269Z,11.25
2018-07-06T04:55:36.276Z,16.88
2018-07-06T04:57:29.225Z,16.88
2018-07-06T04:58:29.222Z,16.88
2018-07-06T05:00:22.180Z,16.88
2018-07-06T05:01:22.166Z,16.88
2018-07-06T05:03:15.095Z,16.88
2018-07-06T05:04:15.111Z,16.88
2018-07-06T05:06:08.066Z,22.50
2018-07-06T05:07:08.052Z,22.50
2018-07-06T05:09:00.985Z,22.50
2018-07-06T05:10:01.001Z,22.50
2018-07-06T05:11:53.949Z,28.13
2018-07-06T05:12:53.957Z,28.13
2018-07-06T05:14:46.873Z,28.13
2018-07-06T05:15:46.888Z,28.13
2018-07-06T05:16:46.966Z,28.13
2018-07-06T05:17:46.927Z,28.13
2018-07-06T05:18:46.948Z,33.75
2018-07-06T05:19:46.967Z,33.75
2018-07-06T05:20:46.993Z,33.75
2018-07-06T05:21:47.012Z,33.75
2018-07-06T05:22:47.030Z,33.75
2018-07-06T05:23:47.057Z,33.75
2018-07-06T05:24:47.075Z,28.13
2018-07-06T05:25:47.093Z,28.13
2018-07-06T05:26:47.116Z,28.13
2018-07-06T05:27:47.140Z,28.13
2018-07-06T05:28:47.158Z,33.75
2018-07-06T05:29:47.184Z,28.13
2018-07-06T05:30:47.205Z,33.75
2018-07-06T05:31:47.221Z,33.75
2018-07-06T05:32:47.245Z,33.75
2018-07-06T05:33:47.264Z,33.75
2018-07-06T05:34:47.285Z,33.75
2018-07-06T05:35:47.308Z,28.13
2018-07-06T05:36:47.326Z,28.13
2018-07-06T05:37:47.357Z,28.13
2018-07-06T05:38:47.370Z,33.75
2018-07-06T05:39:47.394Z,33.75
2018-07-06T05:40:47.416Z,33.75
2018-07-06T05:41:47.436Z,28.13
2018-07-06T05:42:47.466Z,33.75
2018-07-06T05:43:47.482Z,33.75
2018-07-06T05:44:47.503Z,39.38
2018-07-06T05:45:47.522Z,39.38
2018-07-06T05:46:47.542Z,39.38
2018-07-06T05:47:47.565Z,39.38
2018-07-06T05:48:47.584Z,39.38
2018-07-06T05:49:47.618Z,39.38
2018-07-06T05:50:47.629Z,45.00
2018-07-06T05:51:47.649Z,39.38
2018-07-06T05:52:47.674Z,39.38
2018-07-06T05:53:47.745Z,45.00
2018-07-06T05:54:47.713Z,56.25
2018-07-06T05:55:47.734Z,50.63
2018-07-06T05:56:47.757Z,50.63
2018-07-06T05:57:47.783Z,61.88
2018-07-06T05:58:47.803Z,50.63
2018-07-06T05:59:47.823Z,50.63
2018-07-06T06:00:47.838Z,45.00
2018-07-06T06:01:47.861Z,50.63
2018-07-06T06:02:47.885Z,67.50
2018-07-06T06:03:47.918Z,67.50
2018-07-06T06:04:47.933Z,61.88
2018-07-06T06:05:47.953Z,61.88
2018-07-06T06:06:47.970Z,61.88
2018-07-06T06:07:47.996Z,56.25
2018-07-06T06:08:48.020Z,50.63
2018-07-06T06:09:48.035Z,56.25
2018-07-06T06:10:48.067Z,50.63
2018-07-06T06:11:48.117Z,50.63
2018-07-06T06:12:48.101Z,61.88
2018-07-06T06:13:48.122Z,78.75
2018-07-06T06:14:48.190Z,84.38
2018-07-06T06:15:48.162Z,95.63
2018-07-06T06:16:48.189Z,95.63
2018-07-06T06:18:48.377Z,123.75
2018-07-06T06:19:48.345Z,95.63
2018-07-06T06:20:48.271Z,73.13
2018-07-06T06:21:48.295Z,73.13
2018-07-06T06:22:48.317Z,73.13
2018-07-06T06:23:48.337Z,73.13
2018-07-06T06:24:48.380Z,61.88
2018-07-06T06:25:48.392Z,56.25
2018-07-06T06:26:48.405Z,56.25
2018-07-06T06:27:48.429Z,56.25
2018-07-06T06:28:48.459Z,56.25
2018-07-06T06:29:48.471Z,56.25
2018-07-06T06:30:48.498Z,61.88
2018-07-06T06:31:48.547Z,56.25
2018-07-06T06:32:48.549Z,45.00
2018-07-06T06:33:48.700Z,50.63
2018-07-06T06:34:48.585Z,90.00
2018-07-06T06:35:48.616Z,106.88
2018-07-06T06:36:48.627Z,106.88
2018-07-06T06:37:48.646Z,84.38
2018-07-06T06:38:48.669Z,73.13
2018-07-06T06:39:48.690Z,61.88
2018-07-06T06:40:48.715Z,61.88
2018-07-06T06:41:48.734Z,61.88
2018-07-06T06:42:48.795Z,67.50
2018-07-06T06:43:48.773Z,73.13
2018-07-06T06:44:48.836Z,67.50
2018-07-06T06:45:48.817Z,56.25
2018-07-06T06:46:48.847Z,45.00
2018-07-06T06:47:48.880Z,45.00
2018-07-06T06:48:48.911Z,50.63
2018-07-06T06:49:48.947Z,56.25
2018-07-06T06:50:48.984Z,56.25
2018-07-06T06:51:48.955Z,56.25
2018-07-06T06:52:48.976Z,73.13
2018-07-06T06:53:49.011Z,90.00
2018-07-06T06:54:49.019Z,95.63
2018-07-06T06:55:49.041Z,90.00
2018-07-06T06:56:49.068Z,78.75
2018-07-06T06:57:49.086Z,73.13
2018-07-06T06:58:49.103Z,78.75
2018-07-06T06:59:49.131Z,84.38
2018-07-06T07:00:49.153Z,90.00
2018-07-06T07:01:49.175Z,84.38
2018-07-06T07:02:49.194Z,78.75
2018-07-06T07:03:49.217Z,84.38
2018-07-06T07:04:49.239Z,84.38
2018-07-06T07:05:49.259Z,78.75
2018-07-06T07:06:49.288Z,73.13
2018-07-06T07:07:49.369Z,73.13
2018-07-06T07:08:49.329Z,84.38
2018-07-06T07:09:49.347Z,95.63
2018-07-06T07:10:49.372Z,95.63
2018-07-06T07:11:49.442Z,101.25
2018-07-06T07:12:49.427Z,101.25
2018-07-06T07:13:49.523Z,106.88
2018-07-06T07:14:49.460Z,101.25
2018-07-06T07:15:49.490Z,95.63
2018-07-06T07:16:49.507Z,84.38
2018-07-06T07:17:49.526Z,78.75
2018-07-06T07:18:49.547Z,78.75
2018-07-06T07:19:49.572Z,78.75
2018-07-06T07:20:49.594Z,67.50
2018-07-06T07:21:49.614Z,73.13
2018-07-06T07:22:49.641Z,101.25
2018-07-06T07:23:49.672Z,140.63
2018-07-06T07:24:49.688Z,146.25
2018-07-06T07:25:49.717Z,146.25
2018-07-06T07:26:49.727Z,135.00
2018-07-06T07:27:49.751Z,123.75
2018-07-06T07:28:49.780Z,129.38
2018-07-06T07:29:49.796Z,129.38
2018-07-06T07:30:49.819Z,123.75
2018-07-06T07:31:49.842Z,112.50
2018-07-06T07:32:49.879Z,118.13
2018-07-06T07:33:49.898Z,106.88
2018-07-06T07:34:49.916Z,106.88
2018-07-06T07:35:49.930Z,101.25
2018-07-06T07:36:49.953Z,95.63
2018-07-06T07:37:49.979Z,95.63
2018-07-06T07:38:50.015Z,90.00
2018-07-06T07:39:50.024Z,84.38
2018-07-06T07:40:50.044Z,84.38
2018-07-06T07:41:50.070Z,90.00
2018-07-06T07:42:50.095Z,95.63
2018-07-06T07:43:50.112Z,101.25
2018-07-06T07:44:50.144Z,106.88
2018-07-06T07:45:50.154Z,112.50
2018-07-06T07:46:50.183Z,118.13
2018-07-06T07:47:50.206Z,123.75
2018-07-06T07:48:50.235Z,129.38
2018-07-06T07:49:50.247Z,157.50
2018-07-06T07:50:50.276Z,185.63
2018-07-06T07:51:50.296Z,202.50
2018-07-06T07:52:50.317Z,196.88
2018-07-06T07:53:50.335Z,196.88
2018-07-06T07:54:50.364Z,196.88
2018-07-06T07:55:50.387Z,191.25
2018-07-06T07:56:50.408Z,191.25
2018-07-06T07:57:50.431Z,163.13
2018-07-06T07:58:50.457Z,146.25
2018-07-06T07:59:50.496Z,135.00
2018-07-06T08:00:50.613Z,140.63
2018-07-06T08:01:50.531Z,151.88
2018-07-06T08:02:50.565Z,163.13
2018-07-06T08:03:50.582Z,163.13
2018-07-06T08:04:50.603Z,180.00
2018-07-06T08:05:50.625Z,191.25
2018-07-06T08:06:50.648Z,191.25
2018-07-06T08:07:50.694Z,168.75
2018-07-06T08:08:50.692Z,151.88
2018-07-06T08:09:50.713Z,123.75
2018-07-06T08:10:50.743Z,112.50
2018-07-06T08:11:50.778Z,112.50
2018-07-06T08:12:50.790Z,123.75
2018-07-06T08:13:50.810Z,135.00
2018-07-06T08:14:50.830Z,140.63
2018-07-06T08:15:50.853Z,135.00
2018-07-06T08:16:50.878Z,135.00
2018-07-06T08:17:50.902Z,129.38
2018-07-06T08:18:50.922Z,123.75
2018-07-06T08:19:50.956Z,118.13
2018-07-06T08:20:50.969Z,135.00
2018-07-06T08:21:50.990Z,146.25
2018-07-06T08:22:51.022Z,151.88
2018-07-06T08:23:51.038Z,174.38
2018-07-06T08:24:51.068Z,174.38
2018-07-06T08:25:51.083Z,174.38
2018-07-06T08:26:51.116Z,168.75
2018-07-06T08:27:51.131Z,168.75
2018-07-06T08:28:51.162Z,163.13
2018-07-06T08:29:51.183Z,163.13
2018-07-06T08:30:51.205Z,168.75
2018-07-06T08:31:51.227Z,174.38
2018-07-06T08:32:51.255Z,185.63
2018-07-06T08:33:51.277Z,213.75
2018-07-06T08:34:51.301Z,208.13
2018-07-06T08:35:51.322Z,241.88
2018-07-06T08:36:51.361Z,247.50
2018-07-06T08:37:51.366Z,236.25
2018-07-06T08:38:51.392Z,241.88
2018-07-06T08:39:51.433Z,258.75
2018-07-06T08:40:51.444Z,275.63
2018-07-06T08:41:51.460Z,253.13
2018-07-06T08:42:51.488Z,247.50
2018-07-06T08:43:51.517Z,247.50
2018-07-06T08:44:51.542Z,253.13
2018-07-06T08:45:51.563Z,258.75
2018-07-06T08:46:51.588Z,247.50
2018-07-06T08:47:51.618Z,326.25
2018-07-06T08:48:51.629Z,185.63
2018-07-06T08:49:51.659Z,174.38
2018-07-06T08:50:51.684Z,185.63
2018-07-06T08:51:51.702Z,191.25
2018-07-06T08:52:51.722Z,185.63
2018-07-06T08:53:51.748Z,185.63
2018-07-06T08:54:51.774Z,185.63
2018-07-06T08:55:51.800Z,202.50
2018-07-06T08:56:51.841Z,225.00
2018-07-06T08:57:51.848Z,258.75
2018-07-06T08:58:51.871Z,241.88
2018-07-06T08:59:51.900Z,241.88
2018-07-06T09:00:51.917Z,275.63
2018-07-06T09:01:51.945Z,270.00
2018-07-06T09:02:51.964Z,258.75
2018-07-06T09:03:51.996Z,241.88
2018-07-06T09:04:52.038Z,236.25
2018-07-06T09:05:52.039Z,230.63
2018-07-06T09:06:52.067Z,236.25
2018-07-06T09:07:52.090Z,241.88
2018-07-06T09:08:52.118Z,247.50
2018-07-06T09:09:52.146Z,241.88
2018-07-06T09:10:52.169Z,236.25
2018-07-06T09:11:52.189Z,230.63
2018-07-06T09:12:52.212Z,225.00
2018-07-06T09:13:52.243Z,225.00
2018-07-06T09:14:52.271Z,219.38
2018-07-06T09:15:52.289Z,213.75
2018-07-06T09:16:52.314Z,219.38
2018-07-06T09:17:52.342Z,219.38
2018-07-06T09:18:52.360Z,219.38
2018-07-06T09:19:52.729Z,213.75
2018-07-06T09:20:52.416Z,213.75
2018-07-06T09:21:52.437Z,219.38
2018-07-06T09:22:52.475Z,225.00
2018-07-06T09:23:52.488Z,225.00
2018-07-06T09:24:52.512Z,219.38
2018-07-06T09:25:52.948Z,213.75
2018-07-06T09:26:52.568Z,219.38
2018-07-06T09:27:52.583Z,208.13
2018-07-06T09:28:52.609Z,219.38
2018-07-06T09:29:52.637Z,225.00
2018-07-06T09:30:52.665Z,225.00
2018-07-06T09:31:52.730Z,230.63
2018-07-06T09:32:52.724Z,241.88
2018-07-06T09:33:52.750Z,213.75
2018-07-06T09:34:52.760Z,230.63
2018-07-06T09:35:52.852Z,258.75
2018-07-06T09:36:52.812Z,253.13
2018-07-06T09:37:52.837Z,253.13
2018-07-06T09:38:52.856Z,225.00
2018-07-06T09:39:52.927Z,208.13
2018-07-06T09:40:52.910Z,208.13
2018-07-06T09:41:52.930Z,213.75
2018-07-06T09:42:52.957Z,208.13
2018-07-06T09:43:52.986Z,208.13
2018-07-06T09:44:53.008Z,202.50
2018-07-06T09:45:53.030Z,202.50
2018-07-06T09:46:53.062Z,202.50
2018-07-06T09:47:53.085Z,202.50
2018-07-06T09:48:53.108Z,202.50
2018-07-06T09:49:53.133Z,202.50
2018-07-06T09:50:53.208Z,196.88
2018-07-06T09:51:53.181Z,202.50
2018-07-06T09:52:53.204Z,202.50
2018-07-06T09:53:53.483Z,202.50
2018-07-06T09:54:53.508Z,202.50
2018-07-06T09:55:53.282Z,202.50
2018-07-06T09:56:53.307Z,202.50
2018-07-06T09:57:53.367Z,202.50
2018-07-06T09:58:53.355Z,202.50
2018-07-06T09:59:53.380Z,202.50
2018-07-06T10:00:53.405Z,202.50
2018-07-06T10:01:53.428Z,202.50
2018-07-06T10:02:53.457Z,202.50
2018-07-06T10:03:53.479Z,202.50
2018-07-06T10:04:53.516Z,208.13
2018-07-06T10:05:53.530Z,202.50
2018-07-06T10:06:53.564Z,196.88
2018-07-06T10:07:53.583Z,196.88
2018-07-06T10:08:53.605Z,196.88
2018-07-06T10:09:53.764Z,196.88
2018-07-06T10:10:53.667Z,196.88
2018-07-06T10:11:53.677Z,196.88
2018-07-06T10:12:53.705Z,202.50
2018-07-06T10:13:53.732Z,202.50
2018-07-06T10:14:53.756Z,208.13
2018-07-06T10:15:53.776Z,208.13
2018-07-06T10:16:53.841Z,208.13
2018-07-06T10:17:53.828Z,208.13
2018-07-06T10:18:53.851Z,208.13
2018-07-06T10:19:54.015Z,213.75
2018-07-06T10:20:53.940Z,208.13
2018-07-06T10:21:53.954Z,202.50
2018-07-06T10:22:53.965Z,202.50
2018-07-06T10:23:53.976Z,202.50
2018-07-06T10:24:54.000Z,196.88
2018-07-06T10:25:54.030Z,196.88
2018-07-06T10:26:54.049Z,196.88
2018-07-06T10:27:54.077Z,196.88
2018-07-06T10:28:54.106Z,202.50
2018-07-06T10:29:54.132Z,202.50
2018-07-06T10:30:54.146Z,202.50
2018-07-06T10:31:54.177Z,196.88
2018-07-06T10:32:54.200Z,196.88
2018-07-06T10:33:54.305Z,202.50
2018-07-06T10:34:54.247Z,196.88
2018-07-06T10:35:54.279Z,196.88
2018-07-06T10:36:54.301Z,196.88
2018-07-06T10:37:54.324Z,196.88
2018-07-06T10:38:54.351Z,202.50
2018-07-06T10:39:54.560Z,208.13
2018-07-06T10:40:54.398Z,225.00
2018-07-06T10:41:54.420Z,225.00
2018-07-06T10:42:54.451Z,230.63
2018-07-06T10:43:54.473Z,247.50
2018-07-06T10:44:54.500Z,253.13
2018-07-06T10:45:54.531Z,253.13
2018-07-06T10:46:54.547Z,247.50
2018-07-06T10:47:54.574Z,236.25
2018-07-06T10:48:54.606Z,230.63
2018-07-06T10:49:54.628Z,225.00
2018-07-06T10:50:54.654Z,230.63
2018-07-06T10:51:54.679Z,219.38
2018-07-06T10:52:54.703Z,219.38
2018-07-06T10:53:54.725Z,225.00
2018-07-06T10:54:54.754Z,225.00
2018-07-06T10:55:54.778Z,225.00
2018-07-06T10:56:54.804Z,191.25
2018-07-06T10:57:54.825Z,213.75
2018-07-06T10:58:54.853Z,213.75
2018-07-06T10:59:54.879Z,213.75
2018-07-06T11:00:54.906Z,208.13
2018-07-06T11:01:54.927Z,213.75
2018-07-06T11:02:54.962Z,213.75
2018-07-06T11:03:54.980Z,202.50
2018-07-06T11:04:55.042Z,219.38
2018-07-06T11:05:55.036Z,118.13
2018-07-06T11:06:55.061Z,219.38
2018-07-06T11:07:55.092Z,225.00
2018-07-06T11:08:55.166Z,230.63
2018-07-06T11:09:55.133Z,236.25
2018-07-06T11:10:55.164Z,247.50
2018-07-06T11:11:55.187Z,253.13
2018-07-06T11:12:55.215Z,253.13
2018-07-06T11:13:55.234Z,247.50
2018-07-06T11:14:55.259Z,247.50
2018-07-06T11:15:55.287Z,247.50
2018-07-06T11:16:55.309Z,241.88
2018-07-06T11:17:55.338Z,241.88
2018-07-06T11:18:55.365Z,241.88
2018-07-06T11:19:55.389Z,241.88
2018-07-06T11:20:55.419Z,236.25
2018-07-06T11:21:55.444Z,236.25
2018-07-06T11:22:55.466Z,241.88
2018-07-06T11:23:55.495Z,253.13
2018-07-06T11:24:55.521Z,180.00
2018-07-06T11:25:55.546Z,202.50
2018-07-06T11:26:55.571Z,157.50
2018-07-06T11:27:55.596Z,151.88
2018-07-06T11:28:55.629Z,140.63
2018-07-06T11:29:55.649Z,135.00
2018-07-06T11:30:55.671Z,140.63
2018-07-06T11:31:55.703Z,196.88
2018-07-06T11:32:55.728Z,157.50
2018-07-06T11:33:55.749Z,225.00
2018-07-06T11:34:55.778Z,275.63
2018-07-06T11:35:55.804Z,163.13
2018-07-06T11:36:55.831Z,208.13
2018-07-06T11:37:55.887Z,253.13
2018-07-06T11:38:55.885Z,241.88
2018-07-06T11:39:55.908Z,258.75
2018-07-06T11:40:55.935Z,258.75
2018-07-06T11:41:55.965Z,253.13
2018-07-06T11:42:55.985Z,270.00
2018-07-06T11:43:56.020Z,270.00
2018-07-06T11:44:56.107Z,270.00
2018-07-06T11:45:56.059Z,191.25
2018-07-06T11:46:56.086Z,247.50
2018-07-06T11:47:56.110Z,253.13
2018-07-06T11:48:56.138Z,253.13
2018-07-06T11:49:56.168Z,264.38
2018-07-06T11:50:56.187Z,258.75
2018-07-06T11:51:56.216Z,270.00
2018-07-06T11:52:56.245Z,275.63
2018-07-06T11:53:56.271Z,253.13
2018-07-06T11:54:56.299Z,129.38
2018-07-06T11:55:56.358Z,112.50
2018-07-06T11:56:56.360Z,151.88
2018-07-06T11:57:56.381Z,225.00
2018-07-06T11:58:56.398Z,230.63
2018-07-06T11:59:56.448Z,230.63
2018-07-06T12:00:56.456Z,225.00
2018-07-06T12:01:56.525Z,236.25
2018-07-06T12:02:56.501Z,236.25
2018-07-06T12:03:56.617Z,241.88
2018-07-06T12:04:56.559Z,247.50
2018-07-06T12:05:56.585Z,258.75
2018-07-06T12:06:56.610Z,253.13
2018-07-06T12:07:56.634Z,247.50
2018-07-06T12:08:56.665Z,213.75
2018-07-06T12:09:56.690Z,247.50
2018-07-06T12:10:56.710Z,247.50
2018-07-06T12:11:56.744Z,253.13
2018-07-06T12:12:56.766Z,253.13
2018-07-06T12:13:56.799Z,258.75
2018-07-06T12:14:56.831Z,247.50
2018-07-06T12:15:56.847Z,236.25
2018-07-06T12:16:56.875Z,230.63
2018-07-06T12:17:56.894Z,230.63
2018-07-06T12:18:56.929Z,241.88
2018-07-06T12:19:56.969Z,241.88
2018-07-06T12:20:57.006Z,253.13
2018-07-06T12:21:57.001Z,253.13
2018-07-06T12:22:57.029Z,253.13
2018-07-06T12:23:57.057Z,264.38
2018-07-06T12:24:57.084Z,275.63
2018-07-06T12:25:57.111Z,270.00
2018-07-06T12:26:57.133Z,270.00
2018-07-06T12:27:57.218Z,281.25
2018-07-06T12:28:57.191Z,258.75
2018-07-06T12:29:57.213Z,253.13
2018-07-06T12:30:57.271Z,264.38
2018-07-06T12:31:57.274Z,253.13
2018-07-06T12:32:57.297Z,140.63
2018-07-06T12:33:57.317Z,241.88
2018-07-06T12:34:57.349Z,241.88
2018-07-06T12:35:57.373Z,247.50
2018-07-06T12:36:57.458Z,196.88
2018-07-06T12:37:57.432Z,264.38
2018-07-06T12:38:57.455Z,264.38
2018-07-06T12:39:57.487Z,270.00
2018-07-06T12:40:57.513Z,275.63
2018-07-06T12:41:57.536Z,264.38
2018-07-06T12:42:57.560Z,258.75
2018-07-06T12:43:57.589Z,258.75
2018-07-06T12:44:57.617Z,253.13
2018-07-06T12:45:57.643Z,264.38
2018-07-06T12:46:57.671Z,264.38
2018-07-06T12:47:57.691Z,258.75
2018-07-06T12:48:57.727Z,230.63
2018-07-06T12:49:57.755Z,202.50
2018-07-06T12:50:57.786Z,225.00
2018-07-06T12:51:57.805Z,225.00
2018-07-06T12:52:57.834Z,174.38
2018-07-06T12:53:57.864Z,236.25
2018-07-06T12:54:57.885Z,247.50
2018-07-06T12:55:57.913Z,241.88
2018-07-06T12:56:57.941Z,241.88
2018-07-06T12:57:57.966Z,253.13
2018-07-06T12:58:57.994Z,241.88
2018-07-06T12:59:58.017Z,241.88
2018-07-06T13:00:58.065Z,241.88
2018-07-06T13:01:58.070Z,258.75
2018-07-06T13:02:58.094Z,264.38
2018-07-06T13:03:58.122Z,241.88
2018-07-06T13:04:58.154Z,258.75
2018-07-06T13:05:58.180Z,247.50
2018-07-06T13:06:58.208Z,225.00
2018-07-06T13:07:58.232Z,225.00
2018-07-06T13:08:58.261Z,123.75
2018-07-06T13:09:58.286Z,157.50
2018-07-06T13:10:58.316Z,123.75
2018-07-06T13:11:58.343Z,225.00
2018-07-06T13:12:58.368Z,236.25
2018-07-06T13:13:58.395Z,241.88
2018-07-06T13:14:58.420Z,146.25
2018-07-06T13:15:58.451Z,241.88
2018-07-06T13:16:58.476Z,247.50
2018-07-06T13:17:58.503Z,241.88
2018-07-06T13:18:58.531Z,236.25
2018-07-06T13:19:58.641Z,230.63
2018-07-06T13:20:58.631Z,230.63
2018-07-06T13:21:58.609Z,230.63
2018-07-06T13:22:58.638Z,241.88
2018-07-06T13:23:58.666Z,247.50
2018-07-06T13:24:58.690Z,258.75
2018-07-06T13:25:58.761Z,196.88
2018-07-06T13:26:58.744Z,174.38
2018-07-06T13:27:58.773Z,163.13
2018-07-06T13:28:58.801Z,264.38
2018-07-06T13:29:58.824Z,174.38
2018-07-06T13:30:58.850Z,185.63
2018-07-06T13:31:58.878Z,168.75
2018-07-06T13:32:58.908Z,180.00
2018-07-06T13:33:58.932Z,185.63
2018-07-06T13:34:58.959Z,180.00
2018-07-06T13:35:58.987Z,230.63
2018-07-06T13:36:59.010Z,213.75
2018-07-06T13:37:59.043Z,196.88
2018-07-06T13:38:59.068Z,202.50
2018-07-06T13:39:59.089Z,202.50
2018-07-06T13:40:59.122Z,247.50
2018-07-06T13:41:59.150Z,180.00
2018-07-06T13:42:59.176Z,168.75
2018-07-06T13:43:59.198Z,163.13
2018-07-06T13:44:59.229Z,163.13
2018-07-06T13:45:59.253Z,163.13
2018-07-06T13:46:59.278Z,157.50
2018-07-06T13:47:59.306Z,157.50
2018-07-06T13:48:59.333Z,151.88
2018-07-06T13:49:59.361Z,151.88
2018-07-06T13:50:59.394Z,140.63
2018-07-06T13:51:59.412Z,135.00
2018-07-06T13:52:59.443Z,135.00
2018-07-06T13:53:59.461Z,129.38
2018-07-06T13:54:59.492Z,129.38
2018-07-06T13:55:59.518Z,129.38
2018-07-06T13:56:59.542Z,140.63
2018-07-06T13:57:59.570Z,135.00
2018-07-06T13:58:59.632Z,146.25
2018-07-06T13:59:59.621Z,106.88
2018-07-06T14:00:59.652Z,106.88
2018-07-06T14:01:59.676Z,101.25
2018-07-06T14:02:59.707Z,95.63
2018-07-06T14:03:59.731Z,90.00
2018-07-06T14:04:59.829Z,84.38
2018-07-06T14:05:59.793Z,78.75
2018-07-06T14:06:59.806Z,78.75
2018-07-06T14:07:59.836Z,84.38
2018-07-06T14:08:59.866Z,84.38
2018-07-06T14:09:59.882Z,84.38
2018-07-06T14:10:59.908Z,90.00
2018-07-06T14:11:59.979Z,95.63
2018-07-06T14:12:59.963Z,106.88
2018-07-06T14:13:59.989Z,106.88
2018-07-06T14:15:00.029Z,112.50
2018-07-06T14:16:00.045Z,118.13
2018-07-06T14:17:00.069Z,196.88
2018-07-06T14:18:00.095Z,118.13
2018-07-06T14:19:00.122Z,118.13
2018-07-06T14:20:00.146Z,112.50
2018-07-06T14:21:00.168Z,112.50
2018-07-06T14:22:00.203Z,106.88
2018-07-06T14:23:00.220Z,106.88
2018-07-06T14:24:00.254Z,135.00
2018-07-06T14:25:00.276Z,191.25
2018-07-06T14:26:00.302Z,180.00
2018-07-06T14:27:00.324Z,101.25
2018-07-06T14:28:00.359Z,95.63
2018-07-06T14:29:00.384Z,95.63
2018-07-06T14:30:00.402Z,101.25
2018-07-06T14:31:00.435Z,106.88
2018-07-06T14:32:00.457Z,123.75
2018-07-06T14:33:00.483Z,112.50
2018-07-06T14:34:00.511Z,174.38
2018-07-06T14:35:00.556Z,196.88
2018-07-06T14:36:00.561Z,118.13
2018-07-06T14:37:00.586Z,106.88
2018-07-06T14:38:00.611Z,180.00
2018-07-06T14:39:00.636Z,112.50
2018-07-06T14:40:00.658Z,196.88
2018-07-06T14:41:00.701Z,129.38
2018-07-06T14:42:00.712Z,208.13
2018-07-06T14:43:00.740Z,202.50
2018-07-06T14:44:00.766Z,202.50
2018-07-06T14:45:00.793Z,140.63
2018-07-06T14:46:00.818Z,101.25
2018-07-06T14:47:00.838Z,101.25
2018-07-06T14:48:00.872Z,185.63
2018-07-06T14:49:00.893Z,101.25
2018-07-06T14:50:00.918Z,174.38
2018-07-06T14:51:00.944Z,163.13
2018-07-06T14:52:00.978Z,129.38
2018-07-06T14:53:00.997Z,112.50
2018-07-06T14:54:01.024Z,146.25
2018-07-06T14:55:01.051Z,146.25
2018-07-06T14:56:01.079Z,135.00
2018-07-06T14:57:01.104Z,101.25
2018-07-06T14:58:01.131Z,101.25
2018-07-06T14:59:01.156Z,101.25
2018-07-06T15:00:01.185Z,101.25
2018-07-06T15:01:01.208Z,101.25
2018-07-06T15:02:01.232Z,95.63
2018-07-06T15:03:01.259Z,95.63
2018-07-06T15:04:01.283Z,151.88
2018-07-06T15:05:01.308Z,112.50
2018-07-06T15:06:01.336Z,129.38
2018-07-06T15:07:01.459Z,106.88
2018-07-06T15:08:01.390Z,106.88
2018-07-06T15:09:01.441Z,112.50
2018-07-06T15:10:01.440Z,112.50
2018-07-06T15:11:01.462Z,112.50
2018-07-06T15:12:01.488Z,112.50
2018-07-06T15:13:01.533Z,118.13
2018-07-06T15:14:01.540Z,168.75
2018-07-06T15:15:01.565Z,118.13
2018-07-06T15:16:01.605Z,106.88
2018-07-06T15:17:01.628Z,106.88
2018-07-06T15:18:01.649Z,112.50
2018-07-06T15:19:01.670Z,118.13
2018-07-06T15:20:01.695Z,135.00
2018-07-06T15:21:01.722Z,202.50
2018-07-06T15:22:01.750Z,135.00
2018-07-06T15:23:01.772Z,112.50
2018-07-06T15:24:01.803Z,106.88
2018-07-06T15:25:01.828Z,106.88
2018-07-06T15:26:01.851Z,140.63
2018-07-06T15:27:01.878Z,163.13
2018-07-06T15:28:01.904Z,135.00
2018-07-06T15:29:01.926Z,151.88
2018-07-06T15:30:01.970Z,140.63
2018-07-06T15:31:01.981Z,112.50
2018-07-06T15:32:02.007Z,112.50
2018-07-06T15:33:02.033Z,112.50
2018-07-06T15:34:02.063Z,118.13
2018-07-06T15:35:02.084Z,168.75
2018-07-06T15:36:02.113Z,123.75
2018-07-06T15:37:02.136Z,196.88
2018-07-06T15:38:02.161Z,135.00
2018-07-06T15:39:02.183Z,196.88
2018-07-06T15:40:02.211Z,163.13
2018-07-06T15:41:02.292Z,196.88
2018-07-06T15:42:02.266Z,146.25
2018-07-06T15:43:02.292Z,135.00
2018-07-06T15:44:02.316Z,135.00
2018-07-06T15:45:02.340Z,135.00
2018-07-06T15:46:02.364Z,129.38
2018-07-06T15:47:02.390Z,129.38
2018-07-06T15:48:02.416Z,129.38
2018-07-06T15:49:02.444Z,118.13
2018-07-06T15:50:02.469Z,112.50
2018-07-06T15:51:02.492Z,112.50
2018-07-06T15:52:02.522Z,129.38
2018-07-06T15:53:02.542Z,123.75
2018-07-06T15:54:02.571Z,123.75
2018-07-06T15:55:02.599Z,123.75
2018-07-06T15:56:02.624Z,123.75